sensor_id;sensor_type;location;lat;lon;timestamp;temperature;humidity
22379;DHT22;11357;49.990;7.370;2022-12-10T00:00:42;3.10;85.00
22379;DHT22;11357;49.990;7.370;2022-12-10T00:03:07;3.00;85.10
22379;DHT22;11357;49.990;7.370;2022-12-10T00:05:34;3.00;85.20
22379;DHT22;11357;49.990;7.370;2022-12-10T00:08:00;3.00;85.30
22379;DHT22;11357;49.990;7.370;2022-12-10T00:10:26;2.90;85.30
22379;DHT22;11357;49.990;7.370;2022-12-10T00:12:51;2.90;85.30
22379;DHT22;11357;49.990;7.370;2022-12-10T00:15:17;2.90;85.40
22379;DHT22;11357;49.990;7.370;2022-12-10T00:17:42;2.90;85.70
22379;DHT22;11357;49.990;7.370;2022-12-10T00:20:09;3.00;85.50
22379;DHT22;11357;49.990;7.370;2022-12-10T00:22:35;2.90;85.40
22379;DHT22;11357;49.990;7.370;2022-12-10T00:25:01;2.90;85.50
22379;DHT22;11357;49.990;7.370;2022-12-10T00:27:26;2.90;85.60
22379;DHT22;11357;49.990;7.370;2022-12-10T00:29:52;2.90;85.70
22379;DHT22;11357;49.990;7.370;2022-12-10T00:32:17;3.00;85.70
22379;DHT22;11357;49.990;7.370;2022-12-10T00:34:43;3.00;85.60
22379;DHT22;11357;49.990;7.370;2022-12-10T00:37:09;3.00;85.60
22379;DHT22;11357;49.990;7.370;2022-12-10T00:39:34;3.10;85.40
22379;DHT22;11357;49.990;7.370;2022-12-10T00:42:00;3.10;85.30
22379;DHT22;11357;49.990;7.370;2022-12-10T00:44:25;3.20;85.20
22379;DHT22;11357;49.990;7.370;2022-12-10T00:46:51;3.20;85.10
22379;DHT22;11357;49.990;7.370;2022-12-10T00:49:17;3.20;85.00
22379;DHT22;11357;49.990;7.370;2022-12-10T00:51:43;3.20;84.90
22379;DHT22;11357;49.990;7.370;2022-12-10T00:54:08;3.30;84.90
22379;DHT22;11357;49.990;7.370;2022-12-10T00:56:35;3.30;84.80
22379;DHT22;11357;49.990;7.370;2022-12-10T00:59:01;3.30;84.70
22379;DHT22;11357;49.990;7.370;2022-12-10T01:01:32;3.20;84.70
22379;DHT22;11357;49.990;7.370;2022-12-10T01:04:01;3.20;84.80
22379;DHT22;11357;49.990;7.370;2022-12-10T01:06:32;3.20;84.80
22379;DHT22;11357;49.990;7.370;2022-12-10T01:09:01;3.20;84.80
22379;DHT22;11357;49.990;7.370;2022-12-10T01:11:30;3.20;84.70
22379;DHT22;11357;49.990;7.370;2022-12-10T01:13:57;3.20;84.70
22379;DHT22;11357;49.990;7.370;2022-12-10T01:16:23;3.20;84.70
22379;DHT22;11357;49.990;7.370;2022-12-10T01:18:49;3.30;84.70
22379;DHT22;11357;49.990;7.370;2022-12-10T01:21:17;3.30;84.70
22379;DHT22;11357;49.990;7.370;2022-12-10T01:23:45;3.30;84.70
22379;DHT22;11357;49.990;7.370;2022-12-10T01:26:14;3.30;84.60
22379;DHT22;11357;49.990;7.370;2022-12-10T01:28:41;3.30;84.50
22379;DHT22;11357;49.990;7.370;2022-12-10T01:33:41;3.20;84.40
22379;DHT22;11357;49.990;7.370;2022-12-10T01:36:13;3.20;84.40
22379;DHT22;11357;49.990;7.370;2022-12-10T01:38:40;3.20;84.50
22379;DHT22;11357;49.990;7.370;2022-12-10T01:41:07;3.20;84.60
22379;DHT22;11357;49.990;7.370;2022-12-10T01:44:56;3.10;84.50
22379;DHT22;11357;49.990;7.370;2022-12-10T01:46:43;3.20;84.70
22379;DHT22;11357;49.990;7.370;2022-12-10T01:49:12;3.20;84.60
22379;DHT22;11357;49.990;7.370;2022-12-10T01:51:40;3.20;84.50
22379;DHT22;11357;49.990;7.370;2022-12-10T01:54:13;3.20;84.50
22379;DHT22;11357;49.990;7.370;2022-12-10T01:56:43;3.20;84.50
22379;DHT22;11357;49.990;7.370;2022-12-10T01:59:10;3.20;84.50
22379;DHT22;11357;49.990;7.370;2022-12-10T02:13:04;3.10;84.40
22379;DHT22;11357;49.990;7.370;2022-12-10T02:15:35;3.10;84.30
22379;DHT22;11357;49.990;7.370;2022-12-10T02:20:48;3.10;85.00
22379;DHT22;11357;49.990;7.370;2022-12-10T02:23:26;3.10;84.20
22379;DHT22;11357;49.990;7.370;2022-12-10T02:26:13;3.20;84.20
22379;DHT22;11357;49.990;7.370;2022-12-10T02:31:30;3.20;83.90
22379;DHT22;11357;49.990;7.370;2022-12-10T02:34:00;3.10;83.80
22379;DHT22;11357;49.990;7.370;2022-12-10T02:36:29;3.10;83.90
22379;DHT22;11357;49.990;7.370;2022-12-10T02:39:00;3.10;83.90
22379;DHT22;11357;49.990;7.370;2022-12-10T02:41:34;3.10;84.00
22379;DHT22;11357;49.990;7.370;2022-12-10T02:44:03;3.10;83.90
22379;DHT22;11357;49.990;7.370;2022-12-10T02:46:32;3.10;83.80
22379;DHT22;11357;49.990;7.370;2022-12-10T02:48:58;3.20;83.80
22379;DHT22;11357;49.990;7.370;2022-12-10T02:51:26;3.20;83.70
22379;DHT22;11357;49.990;7.370;2022-12-10T02:54:00;3.30;83.60
22379;DHT22;11357;49.990;7.370;2022-12-10T02:56:45;3.30;83.60
22379;DHT22;11357;49.990;7.370;2022-12-10T02:59:19;3.20;83.50
22379;DHT22;11357;49.990;7.370;2022-12-10T03:07:10;3.20;83.60
22379;DHT22;11357;49.990;7.370;2022-12-10T03:09:47;3.20;83.60
22379;DHT22;11357;49.990;7.370;2022-12-10T03:12:47;3.20;83.60
22379;DHT22;11357;49.990;7.370;2022-12-10T03:15:14;3.20;83.60
22379;DHT22;11357;49.990;7.370;2022-12-10T03:17:42;3.30;83.50
22379;DHT22;11357;49.990;7.370;2022-12-10T03:20:12;3.30;83.50
22379;DHT22;11357;49.990;7.370;2022-12-10T03:22:39;3.20;83.40
22379;DHT22;11357;49.990;7.370;2022-12-10T03:25:07;3.20;83.50
22379;DHT22;11357;49.990;7.370;2022-12-10T03:27:34;3.20;83.50
22379;DHT22;11357;49.990;7.370;2022-12-10T03:30:02;3.10;83.70
22379;DHT22;11357;49.990;7.370;2022-12-10T03:32:29;3.10;83.60
22379;DHT22;11357;49.990;7.370;2022-12-10T03:34:56;3.10;83.60
22379;DHT22;11357;49.990;7.370;2022-12-10T03:37:24;3.10;83.70
22379;DHT22;11357;49.990;7.370;2022-12-10T03:39:51;3.00;84.30
22379;DHT22;11357;49.990;7.370;2022-12-10T03:42:16;2.90;83.70
22379;DHT22;11357;49.990;7.370;2022-12-10T03:44:42;2.90;83.80
22379;DHT22;11357;49.990;7.370;2022-12-10T03:47:11;2.90;83.90
22379;DHT22;11357;49.990;7.370;2022-12-10T03:49:38;2.80;83.80
22379;DHT22;11357;49.990;7.370;2022-12-10T03:52:04;2.80;83.80
22379;DHT22;11357;49.990;7.370;2022-12-10T03:54:29;2.70;83.80
22379;DHT22;11357;49.990;7.370;2022-12-10T03:56:55;2.70;83.80
22379;DHT22;11357;49.990;7.370;2022-12-10T03:59:21;2.70;83.90
22379;DHT22;11357;49.990;7.370;2022-12-10T04:01:47;2.70;84.50
22379;DHT22;11357;49.990;7.370;2022-12-10T04:04:12;2.60;83.70
22379;DHT22;11357;49.990;7.370;2022-12-10T04:06:40;2.50;83.60
22379;DHT22;11357;49.990;7.370;2022-12-10T04:09:08;2.50;83.90
22379;DHT22;11357;49.990;7.370;2022-12-10T04:11:34;2.50;84.00
22379;DHT22;11357;49.990;7.370;2022-12-10T04:14:00;2.40;84.00
22379;DHT22;11357;49.990;7.370;2022-12-10T04:16:44;2.40;84.00
22379;DHT22;11357;49.990;7.370;2022-12-10T04:19:12;2.40;84.00
22379;DHT22;11357;49.990;7.370;2022-12-10T04:21:39;2.30;84.00
22379;DHT22;11357;49.990;7.370;2022-12-10T04:24:26;2.40;84.10
22379;DHT22;11357;49.990;7.370;2022-12-10T04:27:18;2.40;84.00
22379;DHT22;11357;49.990;7.370;2022-12-10T04:29:45;2.40;83.90
22379;DHT22;11357;49.990;7.370;2022-12-10T04:32:10;2.30;84.10
22379;DHT22;11357;49.990;7.370;2022-12-10T04:34:36;2.30;84.20
22379;DHT22;11357;49.990;7.370;2022-12-10T04:37:03;2.30;84.20
22379;DHT22;11357;49.990;7.370;2022-12-10T04:39:29;2.30;84.80
22379;DHT22;11357;49.990;7.370;2022-12-10T04:41:55;2.30;84.20
22379;DHT22;11357;49.990;7.370;2022-12-10T04:44:21;2.20;84.20
22379;DHT22;11357;49.990;7.370;2022-12-10T04:46:46;2.20;84.20
22379;DHT22;11357;49.990;7.370;2022-12-10T04:49:13;2.30;84.20
22379;DHT22;11357;49.990;7.370;2022-12-10T04:51:39;2.30;84.20
22379;DHT22;11357;49.990;7.370;2022-12-10T04:54:05;2.30;84.20
22379;DHT22;11357;49.990;7.370;2022-12-10T04:56:31;2.20;84.20
22379;DHT22;11357;49.990;7.370;2022-12-10T04:58:58;2.10;84.40
22379;DHT22;11357;49.990;7.370;2022-12-10T05:01:24;2.10;84.50
22379;DHT22;11357;49.990;7.370;2022-12-10T05:03:50;2.10;84.70
22379;DHT22;11357;49.990;7.370;2022-12-10T05:06:17;2.10;84.80
22379;DHT22;11357;49.990;7.370;2022-12-10T05:08:44;2.10;84.80
22379;DHT22;11357;49.990;7.370;2022-12-10T05:11:12;2.00;84.80
22379;DHT22;11357;49.990;7.370;2022-12-10T05:13:38;2.10;84.90
22379;DHT22;11357;49.990;7.370;2022-12-10T05:16:06;2.10;84.80
22379;DHT22;11357;49.990;7.370;2022-12-10T05:18:32;2.10;84.90
22379;DHT22;11357;49.990;7.370;2022-12-10T05:20:59;2.10;84.90
22379;DHT22;11357;49.990;7.370;2022-12-10T05:23:25;2.10;84.80
22379;DHT22;11357;49.990;7.370;2022-12-10T05:26:12;2.10;84.80
22379;DHT22;11357;49.990;7.370;2022-12-10T05:28:40;2.10;84.80
22379;DHT22;11357;49.990;7.370;2022-12-10T05:31:12;2.10;84.70
22379;DHT22;11357;49.990;7.370;2022-12-10T05:33:38;2.10;84.90
22379;DHT22;11357;49.990;7.370;2022-12-10T05:36:04;2.10;84.80
22379;DHT22;11357;49.990;7.370;2022-12-10T05:38:32;2.10;84.80
22379;DHT22;11357;49.990;7.370;2022-12-10T05:41:05;2.10;84.90
22379;DHT22;11357;49.990;7.370;2022-12-10T05:43:32;2.10;85.00
22379;DHT22;11357;49.990;7.370;2022-12-10T05:46:06;2.10;85.00
22379;DHT22;11357;49.990;7.370;2022-12-10T05:48:33;2.10;85.00
22379;DHT22;11357;49.990;7.370;2022-12-10T05:51:13;2.10;85.00
22379;DHT22;11357;49.990;7.370;2022-12-10T05:53:40;2.10;85.10
22379;DHT22;11357;49.990;7.370;2022-12-10T05:56:08;2.20;85.00
22379;DHT22;11357;49.990;7.370;2022-12-10T05:58:34;2.20;85.00
22379;DHT22;11357;49.990;7.370;2022-12-10T06:01:05;2.10;84.70
22379;DHT22;11357;49.990;7.370;2022-12-10T06:03:31;2.00;84.80
22379;DHT22;11357;49.990;7.370;2022-12-10T06:05:56;2.00;84.90
22379;DHT22;11357;49.990;7.370;2022-12-10T06:08:22;2.00;84.90
22379;DHT22;11357;49.990;7.370;2022-12-10T06:10:48;2.00;84.90
22379;DHT22;11357;49.990;7.370;2022-12-10T06:13:14;2.00;84.90
22379;DHT22;11357;49.990;7.370;2022-12-10T06:15:40;2.10;84.90
22379;DHT22;11357;49.990;7.370;2022-12-10T06:18:06;2.10;84.90
22379;DHT22;11357;49.990;7.370;2022-12-10T06:20:32;2.20;84.70
22379;DHT22;11357;49.990;7.370;2022-12-10T06:22:58;2.30;84.60
22379;DHT22;11357;49.990;7.370;2022-12-10T06:25:23;2.30;84.50
22379;DHT22;11357;49.990;7.370;2022-12-10T06:27:49;2.30;84.30
22379;DHT22;11357;49.990;7.370;2022-12-10T06:30:15;2.30;84.30
22379;DHT22;11357;49.990;7.370;2022-12-10T06:32:40;2.30;84.40
22379;DHT22;11357;49.990;7.370;2022-12-10T06:35:09;2.20;84.40
22379;DHT22;11357;49.990;7.370;2022-12-10T06:37:34;2.20;84.30
22379;DHT22;11357;49.990;7.370;2022-12-10T06:40:00;2.20;84.30
22379;DHT22;11357;49.990;7.370;2022-12-10T06:42:25;2.20;84.10
22379;DHT22;11357;49.990;7.370;2022-12-10T06:44:51;2.20;84.20
22379;DHT22;11357;49.990;7.370;2022-12-10T06:47:17;2.30;84.20
22379;DHT22;11357;49.990;7.370;2022-12-10T06:49:42;2.30;84.10
22379;DHT22;11357;49.990;7.370;2022-12-10T06:52:08;2.30;84.10
22379;DHT22;11357;49.990;7.370;2022-12-10T06:54:34;2.30;84.70
22379;DHT22;11357;49.990;7.370;2022-12-10T06:56:59;2.20;84.00
22379;DHT22;11357;49.990;7.370;2022-12-10T06:59:25;2.20;84.00
22379;DHT22;11357;49.990;7.370;2022-12-10T07:01:51;2.20;84.00
22379;DHT22;11357;49.990;7.370;2022-12-10T07:04:17;2.20;83.90
22379;DHT22;11357;49.990;7.370;2022-12-10T07:06:42;2.20;83.90
22379;DHT22;11357;49.990;7.370;2022-12-10T07:09:08;2.20;83.90
22379;DHT22;11357;49.990;7.370;2022-12-10T07:11:35;2.20;83.90
22379;DHT22;11357;49.990;7.370;2022-12-10T07:14:01;2.20;83.90
22379;DHT22;11357;49.990;7.370;2022-12-10T07:16:29;2.10;83.90
22379;DHT22;11357;49.990;7.370;2022-12-10T07:18:56;2.20;84.00
22379;DHT22;11357;49.990;7.370;2022-12-10T07:21:24;2.20;83.90
22379;DHT22;11357;49.990;7.370;2022-12-10T07:23:52;2.20;83.80
22379;DHT22;11357;49.990;7.370;2022-12-10T07:26:23;2.20;83.70
22379;DHT22;11357;49.990;7.370;2022-12-10T07:28:49;2.20;83.60
22379;DHT22;11357;49.990;7.370;2022-12-10T07:31:15;2.20;83.70
22379;DHT22;11357;49.990;7.370;2022-12-10T07:33:40;2.20;83.70
22379;DHT22;11357;49.990;7.370;2022-12-10T07:36:11;2.30;83.70
22379;DHT22;11357;49.990;7.370;2022-12-10T07:38:38;2.30;83.70
22379;DHT22;11357;49.990;7.370;2022-12-10T07:41:10;2.30;83.60
22379;DHT22;11357;49.990;7.370;2022-12-10T07:43:37;2.30;83.50
22379;DHT22;11357;49.990;7.370;2022-12-10T07:46:18;2.20;83.50
22379;DHT22;11357;49.990;7.370;2022-12-10T07:48:46;2.20;83.70
22379;DHT22;11357;49.990;7.370;2022-12-10T07:51:12;2.20;83.80
22379;DHT22;11357;49.990;7.370;2022-12-10T07:53:38;2.10;83.80
22379;DHT22;11357;49.990;7.370;2022-12-10T07:56:04;2.20;83.80
22379;DHT22;11357;49.990;7.370;2022-12-10T07:58:31;2.20;83.70
22379;DHT22;11357;49.990;7.370;2022-12-10T08:00:56;2.20;83.60
22379;DHT22;11357;49.990;7.370;2022-12-10T08:03:22;2.30;83.70
22379;DHT22;11357;49.990;7.370;2022-12-10T08:05:59;2.30;83.60
22379;DHT22;11357;49.990;7.370;2022-12-10T08:08:25;2.30;83.50
22379;DHT22;11357;49.990;7.370;2022-12-10T08:10:51;2.20;83.30
22379;DHT22;11357;49.990;7.370;2022-12-10T08:13:16;2.20;83.40
22379;DHT22;11357;49.990;7.370;2022-12-10T08:15:42;2.20;83.50
22379;DHT22;11357;49.990;7.370;2022-12-10T08:18:08;2.20;83.50
22379;DHT22;11357;49.990;7.370;2022-12-10T08:20:35;2.20;83.40
22379;DHT22;11357;49.990;7.370;2022-12-10T08:23:00;2.30;83.40
22379;DHT22;11357;49.990;7.370;2022-12-10T08:25:27;2.30;83.30
22379;DHT22;11357;49.990;7.370;2022-12-10T08:27:52;2.40;83.20
22379;DHT22;11357;49.990;7.370;2022-12-10T08:30:18;2.40;83.20
22379;DHT22;11357;49.990;7.370;2022-12-10T08:32:44;2.50;83.20
22379;DHT22;11357;49.990;7.370;2022-12-10T08:35:09;2.50;83.00
22379;DHT22;11357;49.990;7.370;2022-12-10T08:37:35;2.50;83.00
22379;DHT22;11357;49.990;7.370;2022-12-10T08:40:00;2.50;83.10
22379;DHT22;11357;49.990;7.370;2022-12-10T08:42:26;2.40;82.90
22379;DHT22;11357;49.990;7.370;2022-12-10T08:44:52;2.40;83.00
22379;DHT22;11357;49.990;7.370;2022-12-10T08:47:17;2.40;83.00
22379;DHT22;11357;49.990;7.370;2022-12-10T08:49:43;2.40;83.00
22379;DHT22;11357;49.990;7.370;2022-12-10T08:52:09;2.50;82.90
22379;DHT22;11357;49.990;7.370;2022-12-10T08:54:35;2.50;82.80
22379;DHT22;11357;49.990;7.370;2022-12-10T08:57:00;2.50;82.70
22379;DHT22;11357;49.990;7.370;2022-12-10T08:59:27;2.50;82.60
22379;DHT22;11357;49.990;7.370;2022-12-10T09:01:52;2.60;82.60
22379;DHT22;11357;49.990;7.370;2022-12-10T09:04:18;2.60;82.30
22379;DHT22;11357;49.990;7.370;2022-12-10T09:06:44;2.70;82.40
22379;DHT22;11357;49.990;7.370;2022-12-10T09:09:09;2.70;82.40
22379;DHT22;11357;49.990;7.370;2022-12-10T09:11:35;2.70;82.30
22379;DHT22;11357;49.990;7.370;2022-12-10T09:14:01;2.70;82.20
22379;DHT22;11357;49.990;7.370;2022-12-10T09:16:32;2.80;82.20
22379;DHT22;11357;49.990;7.370;2022-12-10T09:18:58;2.90;82.10
22379;DHT22;11357;49.990;7.370;2022-12-10T09:21:24;3.00;81.80
22379;DHT22;11357;49.990;7.370;2022-12-10T09:23:50;2.90;81.50
22379;DHT22;11357;49.990;7.370;2022-12-10T09:26:17;2.90;81.60
22379;DHT22;11357;49.990;7.370;2022-12-10T09:28:44;2.90;81.60
22379;DHT22;11357;49.990;7.370;2022-12-10T09:31:11;2.90;82.30
22379;DHT22;11357;49.990;7.370;2022-12-10T09:33:37;2.90;81.50
22379;DHT22;11357;49.990;7.370;2022-12-10T09:36:04;2.90;81.40
22379;DHT22;11357;49.990;7.370;2022-12-10T09:38:36;2.90;81.40
22379;DHT22;11357;49.990;7.370;2022-12-10T09:41:05;2.90;81.30
22379;DHT22;11357;49.990;7.370;2022-12-10T09:43:47;3.00;81.40
22379;DHT22;11357;49.990;7.370;2022-12-10T09:46:19;3.00;81.20
22379;DHT22;11357;49.990;7.370;2022-12-10T09:51:36;2.80;81.30
22379;DHT22;11357;49.990;7.370;2022-12-10T09:56:42;2.80;81.30
22379;DHT22;11357;49.990;7.370;2022-12-10T09:59:20;2.90;81.30
22379;DHT22;11357;49.990;7.370;2022-12-10T10:01:50;3.00;81.20
22379;DHT22;11357;49.990;7.370;2022-12-10T10:04:23;3.10;81.10
22379;DHT22;11357;49.990;7.370;2022-12-10T10:06:49;3.20;81.00
22379;DHT22;11357;49.990;7.370;2022-12-10T10:09:15;3.20;80.80
22379;DHT22;11357;49.990;7.370;2022-12-10T10:11:42;3.30;80.90
22379;DHT22;11357;49.990;7.370;2022-12-10T10:14:22;3.40;80.80
22379;DHT22;11357;49.990;7.370;2022-12-10T10:17:02;3.50;80.60
22379;DHT22;11357;49.990;7.370;2022-12-10T10:19:31;3.60;80.40
22379;DHT22;11357;49.990;7.370;2022-12-10T10:21:58;3.60;80.30
22379;DHT22;11357;49.990;7.370;2022-12-10T10:24:32;3.60;80.20
22379;DHT22;11357;49.990;7.370;2022-12-10T10:27:01;3.50;80.20
22379;DHT22;11357;49.990;7.370;2022-12-10T10:29:34;3.30;80.10
22379;DHT22;11357;49.990;7.370;2022-12-10T10:34:52;3.40;80.40
22379;DHT22;11357;49.990;7.370;2022-12-10T10:39:49;3.40;80.00
22379;DHT22;11357;49.990;7.370;2022-12-10T10:44:50;3.40;80.10
22379;DHT22;11357;49.990;7.370;2022-12-10T10:47:28;3.40;79.90
22379;DHT22;11357;49.990;7.370;2022-12-10T10:49:54;3.40;80.00
22379;DHT22;11357;49.990;7.370;2022-12-10T10:52:20;3.40;80.10
22379;DHT22;11357;49.990;7.370;2022-12-10T10:54:46;3.50;80.00
22379;DHT22;11357;49.990;7.370;2022-12-10T10:57:34;3.50;80.00
22379;DHT22;11357;49.990;7.370;2022-12-10T11:00:37;3.50;79.80
22379;DHT22;11357;49.990;7.370;2022-12-10T11:02:57;3.60;79.90
22379;DHT22;11357;49.990;7.370;2022-12-10T11:05:25;3.60;79.80
22379;DHT22;11357;49.990;7.370;2022-12-10T11:08:00;3.60;79.80
22379;DHT22;11357;49.990;7.370;2022-12-10T11:10:27;3.60;79.80
22379;DHT22;11357;49.990;7.370;2022-12-10T11:15:33;3.50;79.40
22379;DHT22;11357;49.990;7.370;2022-12-10T11:18:00;3.60;79.20
22379;DHT22;11357;49.990;7.370;2022-12-10T11:20:31;3.70;79.00
22379;DHT22;11357;49.990;7.370;2022-12-10T11:23:00;3.80;78.70
22379;DHT22;11357;49.990;7.370;2022-12-10T11:34:06;3.80;78.50
22379;DHT22;11357;49.990;7.370;2022-12-10T11:50:30;4.00;78.10
22379;DHT22;11357;49.990;7.370;2022-12-10T12:06:59;3.80;77.90
22379;DHT22;11357;49.990;7.370;2022-12-10T12:12:33;4.10;77.20
22379;DHT22;11357;49.990;7.370;2022-12-10T12:17:50;3.90;77.40
22379;DHT22;11357;49.990;7.370;2022-12-10T12:20:23;3.90;77.70
22379;DHT22;11357;49.990;7.370;2022-12-10T12:22:56;3.90;77.40
22379;DHT22;11357;49.990;7.370;2022-12-10T12:25:24;4.00;77.50
22379;DHT22;11357;49.990;7.370;2022-12-10T12:28:09;4.00;77.30
22379;DHT22;11357;49.990;7.370;2022-12-10T12:30:37;4.10;77.20
22379;DHT22;11357;49.990;7.370;2022-12-10T12:33:10;4.20;77.10
22379;DHT22;11357;49.990;7.370;2022-12-10T12:35:55;4.20;76.90
22379;DHT22;11357;49.990;7.370;2022-12-10T12:38:30;4.20;76.70
22379;DHT22;11357;49.990;7.370;2022-12-10T12:41:26;4.20;76.50
22379;DHT22;11357;49.990;7.370;2022-12-10T12:44:21;4.10;76.60
22379;DHT22;11357;49.990;7.370;2022-12-10T12:46:50;4.00;76.70
22379;DHT22;11357;49.990;7.370;2022-12-10T12:49:28;4.00;76.70
22379;DHT22;11357;49.990;7.370;2022-12-10T12:54:48;4.00;76.80
22379;DHT22;11357;49.990;7.370;2022-12-10T13:00:05;4.00;77.30
22379;DHT22;11357;49.990;7.370;2022-12-10T13:05:39;4.00;76.70
22379;DHT22;11357;49.990;7.370;2022-12-10T13:10:56;4.00;76.70
22379;DHT22;11357;49.990;7.370;2022-12-10T13:15:53;3.90;76.40
22379;DHT22;11357;49.990;7.370;2022-12-10T13:23:54;3.90;76.50
22379;DHT22;11357;49.990;7.370;2022-12-10T13:26:30;3.80;76.40
22379;DHT22;11357;49.990;7.370;2022-12-10T13:29:19;3.70;76.50
22379;DHT22;11357;49.990;7.370;2022-12-10T13:43:37;3.90;76.20
22379;DHT22;11357;49.990;7.370;2022-12-10T13:46:33;4.00;75.90
22379;DHT22;11357;49.990;7.370;2022-12-10T13:49:01;4.20;75.70
22379;DHT22;11357;49.990;7.370;2022-12-10T13:59:49;4.40;74.80
22379;DHT22;11357;49.990;7.370;2022-12-10T14:08:05;4.20;75.30
22379;DHT22;11357;49.990;7.370;2022-12-10T14:10:34;4.10;75.30
22379;DHT22;11357;49.990;7.370;2022-12-10T14:13:04;4.00;75.50
22379;DHT22;11357;49.990;7.370;2022-12-10T14:15:31;3.90;75.60
22379;DHT22;11357;49.990;7.370;2022-12-10T14:18:03;3.80;75.70
22379;DHT22;11357;49.990;7.370;2022-12-10T14:20:31;3.70;75.90
22379;DHT22;11357;49.990;7.370;2022-12-10T14:23:03;3.70;76.10
22379;DHT22;11357;49.990;7.370;2022-12-10T14:25:47;3.70;76.30
22379;DHT22;11357;49.990;7.370;2022-12-10T14:28:15;3.70;76.30
22379;DHT22;11357;49.990;7.370;2022-12-10T14:30:46;3.80;76.40
22379;DHT22;11357;49.990;7.370;2022-12-10T14:33:18;3.90;76.30
22379;DHT22;11357;49.990;7.370;2022-12-10T14:35:49;4.00;76.10
22379;DHT22;11357;49.990;7.370;2022-12-10T14:38:20;4.10;75.90
22379;DHT22;11357;49.990;7.370;2022-12-10T14:40:47;4.10;75.90
22379;DHT22;11357;49.990;7.370;2022-12-10T14:43:14;4.00;75.80
22379;DHT22;11357;49.990;7.370;2022-12-10T14:48:17;3.90;75.90
22379;DHT22;11357;49.990;7.370;2022-12-10T14:50:44;3.80;76.00
22379;DHT22;11357;49.990;7.370;2022-12-10T14:53:19;3.80;76.20
22379;DHT22;11357;49.990;7.370;2022-12-10T14:55:46;3.60;76.10
22379;DHT22;11357;49.990;7.370;2022-12-10T14:58:28;3.40;76.40
22379;DHT22;11357;49.990;7.370;2022-12-10T15:00:56;3.30;76.60
22379;DHT22;11357;49.990;7.370;2022-12-10T15:03:27;3.20;76.80
22379;DHT22;11357;49.990;7.370;2022-12-10T15:05:59;3.10;76.90
22379;DHT22;11357;49.990;7.370;2022-12-10T15:08:27;3.10;76.90
22379;DHT22;11357;49.990;7.370;2022-12-10T15:10:58;3.00;76.90
22379;DHT22;11357;49.990;7.370;2022-12-10T15:13:29;2.90;77.10
22379;DHT22;11357;49.990;7.370;2022-12-10T15:15:57;2.90;77.20
22379;DHT22;11357;49.990;7.370;2022-12-10T15:18:33;2.90;77.30
22379;DHT22;11357;49.990;7.370;2022-12-10T15:21:21;2.90;77.30
22379;DHT22;11357;49.990;7.370;2022-12-10T15:23:48;2.80;77.30
22379;DHT22;11357;49.990;7.370;2022-12-10T15:26:22;2.90;77.30
22379;DHT22;11357;49.990;7.370;2022-12-10T15:28:51;2.90;77.40
22379;DHT22;11357;49.990;7.370;2022-12-10T15:34:01;2.90;78.00
22379;DHT22;11357;49.990;7.370;2022-12-10T15:36:39;2.90;77.30
22379;DHT22;11357;49.990;7.370;2022-12-10T15:41:45;2.80;78.10
22379;DHT22;11357;49.990;7.370;2022-12-10T15:44:39;2.80;77.40
22379;DHT22;11357;49.990;7.370;2022-12-10T15:47:25;2.70;77.40
22379;DHT22;11357;49.990;7.370;2022-12-10T15:49:53;2.70;77.40
22379;DHT22;11357;49.990;7.370;2022-12-10T15:52:30;2.70;77.40
22379;DHT22;11357;49.990;7.370;2022-12-10T15:54:57;2.60;77.40
22379;DHT22;11357;49.990;7.370;2022-12-10T15:57:33;2.60;77.40
22379;DHT22;11357;49.990;7.370;2022-12-10T16:00:03;2.50;77.50
22379;DHT22;11357;49.990;7.370;2022-12-10T16:02:47;2.50;77.50
22379;DHT22;11357;49.990;7.370;2022-12-10T16:05:37;2.40;77.50
22379;DHT22;11357;49.990;7.370;2022-12-10T16:08:16;2.30;77.60
22379;DHT22;11357;49.990;7.370;2022-12-10T16:10:44;2.20;77.70
22379;DHT22;11357;49.990;7.370;2022-12-10T16:13:28;2.10;77.80
22379;DHT22;11357;49.990;7.370;2022-12-10T16:15:57;2.10;78.00
22379;DHT22;11357;49.990;7.370;2022-12-10T16:18:24;2.00;78.00
22379;DHT22;11357;49.990;7.370;2022-12-10T16:20:50;2.00;78.00
22379;DHT22;11357;49.990;7.370;2022-12-10T16:23:15;2.00;78.00
22379;DHT22;11357;49.990;7.370;2022-12-10T16:25:42;1.90;78.00
22379;DHT22;11357;49.990;7.370;2022-12-10T16:28:15;1.80;78.00
22379;DHT22;11357;49.990;7.370;2022-12-10T16:30:44;1.70;78.10
22379;DHT22;11357;49.990;7.370;2022-12-10T16:33:11;1.60;78.10
22379;DHT22;11357;49.990;7.370;2022-12-10T16:35:37;1.60;78.30
22379;DHT22;11357;49.990;7.370;2022-12-10T16:38:03;1.50;78.30
22379;DHT22;11357;49.990;7.370;2022-12-10T16:40:29;1.40;78.40
22379;DHT22;11357;49.990;7.370;2022-12-10T16:42:55;1.40;78.50
22379;DHT22;11357;49.990;7.370;2022-12-10T16:45:25;1.30;78.40
22379;DHT22;11357;49.990;7.370;2022-12-10T16:47:52;1.20;78.60
22379;DHT22;11357;49.990;7.370;2022-12-10T16:50:18;1.10;78.50
22379;DHT22;11357;49.990;7.370;2022-12-10T16:52:45;1.10;78.60
22379;DHT22;11357;49.990;7.370;2022-12-10T16:55:13;1.00;78.60
22379;DHT22;11357;49.990;7.370;2022-12-10T16:57:39;1.00;78.70
22379;DHT22;11357;49.990;7.370;2022-12-10T17:00:06;1.00;78.80
22379;DHT22;11357;49.990;7.370;2022-12-10T17:02:32;0.90;78.90
22379;DHT22;11357;49.990;7.370;2022-12-10T17:04:58;0.90;78.90
22379;DHT22;11357;49.990;7.370;2022-12-10T17:07:23;0.90;79.00
22379;DHT22;11357;49.990;7.370;2022-12-10T17:09:49;0.90;79.00
22379;DHT22;11357;49.990;7.370;2022-12-10T17:12:15;0.80;78.90
22379;DHT22;11357;49.990;7.370;2022-12-10T17:14:42;0.80;78.90
22379;DHT22;11357;49.990;7.370;2022-12-10T17:17:13;0.70;78.90
22379;DHT22;11357;49.990;7.370;2022-12-10T17:19:40;0.60;78.90
22379;DHT22;11357;49.990;7.370;2022-12-10T17:22:06;0.60;78.90
22379;DHT22;11357;49.990;7.370;2022-12-10T17:24:33;0.50;79.00
22379;DHT22;11357;49.990;7.370;2022-12-10T17:27:03;0.50;79.20
22379;DHT22;11357;49.990;7.370;2022-12-10T17:29:32;0.50;79.20
22379;DHT22;11357;49.990;7.370;2022-12-10T17:32:01;0.60;79.20
22379;DHT22;11357;49.990;7.370;2022-12-10T17:34:26;0.50;79.00
22379;DHT22;11357;49.990;7.370;2022-12-10T17:36:52;0.50;79.10
22379;DHT22;11357;49.990;7.370;2022-12-10T17:39:19;0.50;79.10
22379;DHT22;11357;49.990;7.370;2022-12-10T17:41:46;0.50;79.20
22379;DHT22;11357;49.990;7.370;2022-12-10T17:44:12;0.50;79.10
22379;DHT22;11357;49.990;7.370;2022-12-10T17:46:39;0.50;79.10
22379;DHT22;11357;49.990;7.370;2022-12-10T17:49:05;0.40;79.20
22379;DHT22;11357;49.990;7.370;2022-12-10T17:51:31;0.40;79.30
22379;DHT22;11357;49.990;7.370;2022-12-10T17:53:57;0.40;79.40
22379;DHT22;11357;49.990;7.370;2022-12-10T17:56:25;0.30;79.30
22379;DHT22;11357;49.990;7.370;2022-12-10T17:58:54;0.30;79.30
22379;DHT22;11357;49.990;7.370;2022-12-10T18:01:20;0.20;79.50
22379;DHT22;11357;49.990;7.370;2022-12-10T18:03:47;0.30;79.60
22379;DHT22;11357;49.990;7.370;2022-12-10T18:06:19;0.30;79.60
22379;DHT22;11357;49.990;7.370;2022-12-10T18:08:46;0.30;79.50
22379;DHT22;11357;49.990;7.370;2022-12-10T18:11:19;0.30;79.40
22379;DHT22;11357;49.990;7.370;2022-12-10T18:13:45;0.20;79.40